Terminal Aerodrome Forecast
Issued by NWS

Home | Current Version | Previous Version | Text Only | Print | Product List | Glossary On
Versions: 1 2 3 4 5 6 7 8 9 10 11 12 13 14 15
000
FTUS44 KLZK 030500
TAFLIT
TAF
KLIT 030533Z 0306/0406 23007KT P6SM -RA VCTS SCT030CB BKN060 OVC250
      TEMPO 0306/0308 5SM -TSRA BKN040CB OVC080
     FM030800 24007KT P6SM VCSH SCT040 BKN080 OVC250
     FM031500 24009G16KT P6SM VCTS SCT040CB BKN100 OVC250
     FM031800 24009G16KT P6SM -TSRA SCT040CB BKN100 OVC250=

USA.gov is the U.S. government's official web portal to all federal, state and local government web resources and services.